sensor_id;sensor_type;location;lat;lon;timestamp;temperature;humidity
46932;DHT22;32670;51.464;11.964;2023-02-15T00:02:25;21.10;53.10
46932;DHT22;32670;51.464;11.964;2023-02-15T00:04:51;21.10;53.20
46932;DHT22;32670;51.464;11.964;2023-02-15T00:07:18;21.10;53.20
46932;DHT22;32670;51.464;11.964;2023-02-15T00:09:46;21.10;53.20
46932;DHT22;32670;51.464;11.964;2023-02-15T00:12:12;21.10;53.20
46932;DHT22;32670;51.464;11.964;2023-02-15T00:14:38;21.10;53.20
46932;DHT22;32670;51.464;11.964;2023-02-15T00:17:03;21.10;53.40
46932;DHT22;32670;51.464;11.964;2023-02-15T00:19:29;21.10;53.60
46932;DHT22;32670;51.464;11.964;2023-02-15T00:21:54;21.10;53.50
46932;DHT22;32670;51.464;11.964;2023-02-15T00:24:20;21.10;53.60
46932;DHT22;32670;51.464;11.964;2023-02-15T00:26:47;21.20;53.70
46932;DHT22;32670;51.464;11.964;2023-02-15T00:29:14;21.20;53.70
46932;DHT22;32670;51.464;11.964;2023-02-15T00:31:40;21.20;53.70
46932;DHT22;32670;51.464;11.964;2023-02-15T00:34:23;21.20;53.90
46932;DHT22;32670;51.464;11.964;2023-02-15T00:36:50;21.20;54.00
46932;DHT22;32670;51.464;11.964;2023-02-15T00:39:16;21.20;54.20
46932;DHT22;32670;51.464;11.964;2023-02-15T00:41:42;21.20;53.70
46932;DHT22;32670;51.464;11.964;2023-02-15T00:44:08;21.20;53.10
46932;DHT22;32670;51.464;11.964;2023-02-15T00:46:35;21.20;53.70
46932;DHT22;32670;51.464;11.964;2023-02-15T00:49:00;21.30;53.80
46932;DHT22;32670;51.464;11.964;2023-02-15T00:51:26;21.20;53.90
46932;DHT22;32670;51.464;11.964;2023-02-15T00:53:52;21.20;53.80
46932;DHT22;32670;51.464;11.964;2023-02-15T00:56:18;21.30;53.80
46932;DHT22;32670;51.464;11.964;2023-02-15T00:58:43;21.20;53.80
46932;DHT22;32670;51.464;11.964;2023-02-15T01:01:11;21.30;53.80
46932;DHT22;32670;51.464;11.964;2023-02-15T01:03:37;21.30;53.90
46932;DHT22;32670;51.464;11.964;2023-02-15T01:06:03;21.30;53.60
46932;DHT22;32670;51.464;11.964;2023-02-15T01:08:29;21.30;53.70
46932;DHT22;32670;51.464;11.964;2023-02-15T01:10:54;21.30;53.70
46932;DHT22;32670;51.464;11.964;2023-02-15T01:13:20;21.30;53.60
46932;DHT22;32670;51.464;11.964;2023-02-15T01:15:53;21.30;53.60
46932;DHT22;32670;51.464;11.964;2023-02-15T01:18:18;21.30;53.70
46932;DHT22;32670;51.464;11.964;2023-02-15T01:20:44;21.30;53.80
46932;DHT22;32670;51.464;11.964;2023-02-15T01:23:09;21.30;53.80
46932;DHT22;32670;51.464;11.964;2023-02-15T01:25:35;21.30;54.00
46932;DHT22;32670;51.464;11.964;2023-02-15T01:28:02;21.30;53.90
46932;DHT22;32670;51.464;11.964;2023-02-15T01:30:28;21.30;53.90
46932;DHT22;32670;51.464;11.964;2023-02-15T01:32:53;21.30;53.90
46932;DHT22;32670;51.464;11.964;2023-02-15T01:35:19;21.30;54.10
46932;DHT22;32670;51.464;11.964;2023-02-15T01:37:44;21.30;54.00
46932;DHT22;32670;51.464;11.964;2023-02-15T01:40:15;21.30;54.00
46932;DHT22;32670;51.464;11.964;2023-02-15T01:42:41;21.30;54.20
46932;DHT22;32670;51.464;11.964;2023-02-15T01:45:28;21.30;54.10
46932;DHT22;32670;51.464;11.964;2023-02-15T01:47:58;21.30;54.10
46932;DHT22;32670;51.464;11.964;2023-02-15T01:50:33;21.30;54.30
46932;DHT22;32670;51.464;11.964;2023-02-15T01:55:57;21.30;54.40
46932;DHT22;32670;51.464;11.964;2023-02-15T01:58:25;21.30;54.30
46932;DHT22;32670;51.464;11.964;2023-02-15T02:00:50;21.40;54.40
46932;DHT22;32670;51.464;11.964;2023-02-15T02:03:16;21.40;54.50
46932;DHT22;32670;51.464;11.964;2023-02-15T02:05:42;21.40;54.40
46932;DHT22;32670;51.464;11.964;2023-02-15T02:08:08;21.40;54.60
46932;DHT22;32670;51.464;11.964;2023-02-15T02:10:35;21.30;54.50
46932;DHT22;32670;51.464;11.964;2023-02-15T02:13:03;21.30;54.80
46932;DHT22;32670;51.464;11.964;2023-02-15T02:15:53;21.40;54.70
46932;DHT22;32670;51.464;11.964;2023-02-15T02:23:38;21.40;54.90
46932;DHT22;32670;51.464;11.964;2023-02-15T02:26:31;21.40;55.10
46932;DHT22;32670;51.464;11.964;2023-02-15T02:35:11;21.40;55.30
46932;DHT22;32670;51.464;11.964;2023-02-15T02:38:08;21.40;55.00
46932;DHT22;32670;51.464;11.964;2023-02-15T02:41:05;21.40;55.20
46932;DHT22;32670;51.464;11.964;2023-02-15T02:43:48;21.40;55.20
46932;DHT22;32670;51.464;11.964;2023-02-15T02:46:26;21.40;55.10
46932;DHT22;32670;51.464;11.964;2023-02-15T02:48:53;21.40;55.10
46932;DHT22;32670;51.464;11.964;2023-02-15T02:51:19;21.40;55.20
46932;DHT22;32670;51.464;11.964;2023-02-15T02:53:51;21.40;55.10
46932;DHT22;32670;51.464;11.964;2023-02-15T02:56:29;21.40;55.10
46932;DHT22;32670;51.464;11.964;2023-02-15T02:59:05;21.40;55.20
46932;DHT22;32670;51.464;11.964;2023-02-15T03:01:55;21.40;55.10
46932;DHT22;32670;51.464;11.964;2023-02-15T03:04:30;21.40;55.30
46932;DHT22;32670;51.464;11.964;2023-02-15T03:07:01;21.40;55.10
46932;DHT22;32670;51.464;11.964;2023-02-15T03:09:38;21.40;55.00
46932;DHT22;32670;51.464;11.964;2023-02-15T03:12:09;21.40;55.30
46932;DHT22;32670;51.464;11.964;2023-02-15T03:14:36;21.40;55.00
46932;DHT22;32670;51.464;11.964;2023-02-15T03:17:02;21.40;55.20
46932;DHT22;32670;51.464;11.964;2023-02-15T03:19:31;21.40;55.40
46932;DHT22;32670;51.464;11.964;2023-02-15T03:22:04;21.40;55.40
46932;DHT22;32670;51.464;11.964;2023-02-15T03:24:58;21.40;55.30
46932;DHT22;32670;51.464;11.964;2023-02-15T03:27:27;21.40;55.50
46932;DHT22;32670;51.464;11.964;2023-02-15T03:29:58;21.40;54.70
46932;DHT22;32670;51.464;11.964;2023-02-15T03:32:26;21.40;55.30
46932;DHT22;32670;51.464;11.964;2023-02-15T03:34:52;21.40;55.60
46932;DHT22;32670;51.464;11.964;2023-02-15T03:37:28;21.40;55.50
46932;DHT22;32670;51.464;11.964;2023-02-15T03:40:10;21.50;55.70
46932;DHT22;32670;51.464;11.964;2023-02-15T03:43:02;21.50;55.70
46932;DHT22;32670;51.464;11.964;2023-02-15T03:45:31;21.50;55.90
46932;DHT22;32670;51.464;11.964;2023-02-15T03:47:59;21.40;55.80
46932;DHT22;32670;51.464;11.964;2023-02-15T03:50:29;21.50;55.90
46932;DHT22;32670;51.464;11.964;2023-02-15T03:53:16;21.50;55.80
46932;DHT22;32670;51.464;11.964;2023-02-15T03:55:47;21.50;55.80
46932;DHT22;32670;51.464;11.964;2023-02-15T03:58:12;21.50;55.80
46932;DHT22;32670;51.464;11.964;2023-02-15T04:01:04;21.50;55.80
46932;DHT22;32670;51.464;11.964;2023-02-15T04:03:57;21.50;55.90
46932;DHT22;32670;51.464;11.964;2023-02-15T04:06:25;21.50;55.90
46932;DHT22;32670;51.464;11.964;2023-02-15T04:08:50;21.50;55.90
46932;DHT22;32670;51.464;11.964;2023-02-15T04:11:34;21.50;55.90
46932;DHT22;32670;51.464;11.964;2023-02-15T04:14:00;21.40;55.80
46932;DHT22;32670;51.464;11.964;2023-02-15T04:16:45;21.50;55.70
46932;DHT22;32670;51.464;11.964;2023-02-15T04:19:10;21.50;55.80
46932;DHT22;32670;51.464;11.964;2023-02-15T04:21:55;21.50;55.70
46932;DHT22;32670;51.464;11.964;2023-02-15T04:24:38;21.50;55.90
46932;DHT22;32670;51.464;11.964;2023-02-15T04:27:23;21.50;56.00
46932;DHT22;32670;51.464;11.964;2023-02-15T04:29:48;21.50;56.10
46932;DHT22;32670;51.464;11.964;2023-02-15T04:32:15;21.50;56.00
46932;DHT22;32670;51.464;11.964;2023-02-15T04:34:40;21.50;56.00
46932;DHT22;32670;51.464;11.964;2023-02-15T04:37:05;21.50;55.90
46932;DHT22;32670;51.464;11.964;2023-02-15T04:39:31;21.50;56.00
46932;DHT22;32670;51.464;11.964;2023-02-15T04:41:57;21.50;55.90
46932;DHT22;32670;51.464;11.964;2023-02-15T04:44:22;21.50;56.00
46932;DHT22;32670;51.464;11.964;2023-02-15T04:46:48;21.50;56.10
46932;DHT22;32670;51.464;11.964;2023-02-15T04:49:13;21.60;56.20
46932;DHT22;32670;51.464;11.964;2023-02-15T04:51:39;21.50;56.10
46932;DHT22;32670;51.464;11.964;2023-02-15T04:54:05;21.50;56.10
46932;DHT22;32670;51.464;11.964;2023-02-15T04:56:30;21.50;56.10
46932;DHT22;32670;51.464;11.964;2023-02-15T04:58:56;21.60;56.20
46932;DHT22;32670;51.464;11.964;2023-02-15T05:01:22;21.60;56.30
46932;DHT22;32670;51.464;11.964;2023-02-15T05:03:47;21.60;56.20
46932;DHT22;32670;51.464;11.964;2023-02-15T05:06:13;21.60;56.30
46932;DHT22;32670;51.464;11.964;2023-02-15T05:08:38;21.60;56.20
46932;DHT22;32670;51.464;11.964;2023-02-15T05:11:04;21.60;56.40
46932;DHT22;32670;51.464;11.964;2023-02-15T05:13:29;21.50;56.30
46932;DHT22;32670;51.464;11.964;2023-02-15T05:15:54;21.60;56.40
46932;DHT22;32670;51.464;11.964;2023-02-15T05:18:21;21.60;56.40
46932;DHT22;32670;51.464;11.964;2023-02-15T05:20:47;21.60;56.40
46932;DHT22;32670;51.464;11.964;2023-02-15T05:23:13;21.60;56.50
46932;DHT22;32670;51.464;11.964;2023-02-15T05:25:47;21.60;56.60
46932;DHT22;32670;51.464;11.964;2023-02-15T05:28:31;21.60;56.10
46932;DHT22;32670;51.464;11.964;2023-02-15T05:31:05;21.60;55.30
46932;DHT22;32670;51.464;11.964;2023-02-15T05:33:31;21.60;55.60
46932;DHT22;32670;51.464;11.964;2023-02-15T05:35:56;21.60;55.00
46932;DHT22;32670;51.464;11.964;2023-02-15T05:38:22;21.60;54.80
46932;DHT22;32670;51.464;11.964;2023-02-15T05:40:47;21.60;54.70
46932;DHT22;32670;51.464;11.964;2023-02-15T05:43:13;21.60;54.90
46932;DHT22;32670;51.464;11.964;2023-02-15T05:45:38;21.50;44.40
46932;DHT22;32670;51.464;11.964;2023-02-15T05:48:04;21.10;38.50
46932;DHT22;32670;51.464;11.964;2023-02-15T05:50:29;20.60;37.10
46932;DHT22;32670;51.464;11.964;2023-02-15T05:52:55;20.20;36.20
46932;DHT22;32670;51.464;11.964;2023-02-15T05:55:20;19.80;35.20
46932;DHT22;32670;51.464;11.964;2023-02-15T05:57:46;19.50;35.10
46932;DHT22;32670;51.464;11.964;2023-02-15T06:00:12;19.30;35.80
46932;DHT22;32670;51.464;11.964;2023-02-15T06:02:39;19.10;34.90
46932;DHT22;32670;51.464;11.964;2023-02-15T06:05:05;19.10;36.70
46932;DHT22;32670;51.464;11.964;2023-02-15T06:07:31;19.10;36.30
46932;DHT22;32670;51.464;11.964;2023-02-15T06:09:57;19.10;35.50
46932;DHT22;32670;51.464;11.964;2023-02-15T06:12:22;19.20;35.50
46932;DHT22;32670;51.464;11.964;2023-02-15T06:14:48;19.10;35.10
46932;DHT22;32670;51.464;11.964;2023-02-15T06:17:13;19.00;35.10
46932;DHT22;32670;51.464;11.964;2023-02-15T06:19:39;19.00;34.90
46932;DHT22;32670;51.464;11.964;2023-02-15T06:22:05;18.90;34.70
46932;DHT22;32670;51.464;11.964;2023-02-15T06:24:31;18.90;34.60
46932;DHT22;32670;51.464;11.964;2023-02-15T06:26:57;18.80;34.70
46932;DHT22;32670;51.464;11.964;2023-02-15T06:29:22;18.80;34.90
46932;DHT22;32670;51.464;11.964;2023-02-15T06:31:48;18.80;34.90
46932;DHT22;32670;51.464;11.964;2023-02-15T06:34:13;18.70;34.30
46932;DHT22;32670;51.464;11.964;2023-02-15T06:36:39;18.60;34.20
46932;DHT22;32670;51.464;11.964;2023-02-15T06:39:04;18.60;34.20
46932;DHT22;32670;51.464;11.964;2023-02-15T06:41:30;18.50;34.30
46932;DHT22;32670;51.464;11.964;2023-02-15T06:43:55;18.50;34.20
46932;DHT22;32670;51.464;11.964;2023-02-15T06:46:21;18.40;34.40
46932;DHT22;32670;51.464;11.964;2023-02-15T06:48:46;18.40;34.30
46932;DHT22;32670;51.464;11.964;2023-02-15T06:51:12;18.40;34.30
46932;DHT22;32670;51.464;11.964;2023-02-15T06:53:37;18.30;34.50
46932;DHT22;32670;51.464;11.964;2023-02-15T06:56:05;18.30;34.40
46932;DHT22;32670;51.464;11.964;2023-02-15T06:58:41;18.30;34.30
46932;DHT22;32670;51.464;11.964;2023-02-15T07:01:07;18.20;34.30
46932;DHT22;32670;51.464;11.964;2023-02-15T07:03:34;18.10;35.50
46932;DHT22;32670;51.464;11.964;2023-02-15T07:06:02;18.30;37.40
46932;DHT22;32670;51.464;11.964;2023-02-15T07:08:29;18.40;37.50
46932;DHT22;32670;51.464;11.964;2023-02-15T07:10:55;18.60;37.70
46932;DHT22;32670;51.464;11.964;2023-02-15T07:13:41;18.70;38.00
46932;DHT22;32670;51.464;11.964;2023-02-15T07:16:08;18.80;38.50
46932;DHT22;32670;51.464;11.964;2023-02-15T07:18:34;18.90;38.70
46932;DHT22;32670;51.464;11.964;2023-02-15T07:20:59;19.00;39.00
46932;DHT22;32670;51.464;11.964;2023-02-15T07:23:24;19.10;39.30
46932;DHT22;32670;51.464;11.964;2023-02-15T07:25:59;19.10;39.50
46932;DHT22;32670;51.464;11.964;2023-02-15T07:28:25;19.20;39.60
46932;DHT22;32670;51.464;11.964;2023-02-15T07:30:51;19.30;39.90
46932;DHT22;32670;51.464;11.964;2023-02-15T07:33:17;19.30;40.00
46932;DHT22;32670;51.464;11.964;2023-02-15T07:35:53;19.20;40.10
46932;DHT22;32670;51.464;11.964;2023-02-15T07:38:19;19.30;40.30
46932;DHT22;32670;51.464;11.964;2023-02-15T07:40:45;19.40;40.60
46932;DHT22;32670;51.464;11.964;2023-02-15T07:43:11;19.40;40.70
46932;DHT22;32670;51.464;11.964;2023-02-15T07:45:37;19.50;41.50
46932;DHT22;32670;51.464;11.964;2023-02-15T07:48:03;19.50;41.50
46932;DHT22;32670;51.464;11.964;2023-02-15T07:50:29;19.60;41.60
46932;DHT22;32670;51.464;11.964;2023-02-15T07:52:55;19.60;41.60
46932;DHT22;32670;51.464;11.964;2023-02-15T07:55:20;19.60;41.60
46932;DHT22;32670;51.464;11.964;2023-02-15T07:57:48;19.60;41.60
46932;DHT22;32670;51.464;11.964;2023-02-15T08:00:15;19.60;41.60
46932;DHT22;32670;51.464;11.964;2023-02-15T08:02:42;19.60;41.90
46932;DHT22;32670;51.464;11.964;2023-02-15T08:05:07;19.70;42.00
46932;DHT22;32670;51.464;11.964;2023-02-15T08:07:33;19.70;42.00
46932;DHT22;32670;51.464;11.964;2023-02-15T08:09:59;19.70;42.20
46932;DHT22;32670;51.464;11.964;2023-02-15T08:12:27;19.70;42.20
46932;DHT22;32670;51.464;11.964;2023-02-15T08:14:53;19.70;42.60
46932;DHT22;32670;51.464;11.964;2023-02-15T08:17:18;19.70;42.70
46932;DHT22;32670;51.464;11.964;2023-02-15T08:19:44;19.70;42.60
46932;DHT22;32670;51.464;11.964;2023-02-15T08:22:13;19.80;42.70
46932;DHT22;32670;51.464;11.964;2023-02-15T08:24:39;19.70;42.70
46932;DHT22;32670;51.464;11.964;2023-02-15T08:27:07;19.80;42.70
46932;DHT22;32670;51.464;11.964;2023-02-15T08:29:34;19.80;42.80
46932;DHT22;32670;51.464;11.964;2023-02-15T08:32:10;19.80;42.80
46932;DHT22;32670;51.464;11.964;2023-02-15T08:34:40;19.80;42.90
46932;DHT22;32670;51.464;11.964;2023-02-15T08:37:06;19.80;42.90
46932;DHT22;32670;51.464;11.964;2023-02-15T08:39:32;19.80;42.90
46932;DHT22;32670;51.464;11.964;2023-02-15T08:41:58;19.80;43.00
46932;DHT22;32670;51.464;11.964;2023-02-15T08:44:24;19.80;43.10
46932;DHT22;32670;51.464;11.964;2023-02-15T08:46:50;19.80;43.00
46932;DHT22;32670;51.464;11.964;2023-02-15T08:49:18;19.80;43.10
46932;DHT22;32670;51.464;11.964;2023-02-15T08:51:45;19.80;43.10
46932;DHT22;32670;51.464;11.964;2023-02-15T08:54:14;19.80;43.00
46932;DHT22;32670;51.464;11.964;2023-02-15T08:56:42;19.80;43.20
46932;DHT22;32670;51.464;11.964;2023-02-15T08:59:16;19.80;43.20
46932;DHT22;32670;51.464;11.964;2023-02-15T09:01:42;19.80;43.20
46932;DHT22;32670;51.464;11.964;2023-02-15T09:04:09;19.90;43.90
46932;DHT22;32670;51.464;11.964;2023-02-15T09:06:35;19.90;43.30
46932;DHT22;32670;51.464;11.964;2023-02-15T09:09:01;19.90;43.40
46932;DHT22;32670;51.464;11.964;2023-02-15T09:11:28;19.80;43.30
46932;DHT22;32670;51.464;11.964;2023-02-15T09:13:59;19.90;43.40
46932;DHT22;32670;51.464;11.964;2023-02-15T09:16:27;19.90;43.40
46932;DHT22;32670;51.464;11.964;2023-02-15T09:18:54;19.90;43.40
46932;DHT22;32670;51.464;11.964;2023-02-15T09:21:22;19.90;43.40
46932;DHT22;32670;51.464;11.964;2023-02-15T09:23:51;19.90;43.40
46932;DHT22;32670;51.464;11.964;2023-02-15T09:26:19;19.90;43.40
46932;DHT22;32670;51.464;11.964;2023-02-15T09:28:46;19.90;43.50
46932;DHT22;32670;51.464;11.964;2023-02-15T09:31:14;19.90;44.20
46932;DHT22;32670;51.464;11.964;2023-02-15T09:33:41;20.00;44.30
46932;DHT22;32670;51.464;11.964;2023-02-15T09:36:18;19.90;44.10
46932;DHT22;32670;51.464;11.964;2023-02-15T09:38:45;20.00;44.00
46932;DHT22;32670;51.464;11.964;2023-02-15T09:41:22;20.00;44.00
46932;DHT22;32670;51.464;11.964;2023-02-15T09:44:11;20.00;43.90
46932;DHT22;32670;51.464;11.964;2023-02-15T09:46:59;19.90;43.80
46932;DHT22;32670;51.464;11.964;2023-02-15T09:49:50;19.90;43.70
46932;DHT22;32670;51.464;11.964;2023-02-15T09:52:39;20.00;44.40
46932;DHT22;32670;51.464;11.964;2023-02-15T09:55:38;20.00;43.90
46932;DHT22;32670;51.464;11.964;2023-02-15T10:01:26;20.00;44.00
46932;DHT22;32670;51.464;11.964;2023-02-15T10:04:00;20.00;44.40
46932;DHT22;32670;51.464;11.964;2023-02-15T10:06:38;20.00;44.30
46932;DHT22;32670;51.464;11.964;2023-02-15T10:12:32;20.00;44.30
46932;DHT22;32670;51.464;11.964;2023-02-15T10:25:57;20.00;44.10
46932;DHT22;32670;51.464;11.964;2023-02-15T10:28:35;20.00;44.20
46932;DHT22;32670;51.464;11.964;2023-02-15T10:31:17;20.00;44.10
46932;DHT22;32670;51.464;11.964;2023-02-15T10:33:52;20.00;44.20
46932;DHT22;32670;51.464;11.964;2023-02-15T10:45:17;20.00;44.50
46932;DHT22;32670;51.464;11.964;2023-02-15T10:48:09;20.10;44.50
46932;DHT22;32670;51.464;11.964;2023-02-15T10:50:55;20.00;44.40
46932;DHT22;32670;51.464;11.964;2023-02-15T10:53:47;20.00;44.40
46932;DHT22;32670;51.464;11.964;2023-02-15T10:56:42;20.10;44.40
46932;DHT22;32670;51.464;11.964;2023-02-15T11:04:43;20.00;44.30
46932;DHT22;32670;51.464;11.964;2023-02-15T11:07:23;20.10;44.30
46932;DHT22;32670;51.464;11.964;2023-02-15T11:09:59;20.10;44.30
46932;DHT22;32670;51.464;11.964;2023-02-15T11:12:28;20.10;44.30
46932;DHT22;32670;51.464;11.964;2023-02-15T11:18:20;20.10;44.30
46932;DHT22;32670;51.464;11.964;2023-02-15T11:20:49;20.10;44.30
46932;DHT22;32670;51.464;11.964;2023-02-15T11:23:16;20.10;44.30
46932;DHT22;32670;51.464;11.964;2023-02-15T11:25:46;20.10;44.40
46932;DHT22;32670;51.464;11.964;2023-02-15T11:28:24;20.10;44.30
46932;DHT22;32670;51.464;11.964;2023-02-15T11:30:55;20.10;44.30
46932;DHT22;32670;51.464;11.964;2023-02-15T11:33:27;20.10;44.40
46932;DHT22;32670;51.464;11.964;2023-02-15T11:35:59;20.10;44.30
46932;DHT22;32670;51.464;11.964;2023-02-15T11:38:28;20.10;44.40
46932;DHT22;32670;51.464;11.964;2023-02-15T11:40:59;20.10;44.40
46932;DHT22;32670;51.464;11.964;2023-02-15T11:43:47;20.10;44.30
46932;DHT22;32670;51.464;11.964;2023-02-15T11:46:15;20.10;44.30
46932;DHT22;32670;51.464;11.964;2023-02-15T11:48:47;20.10;44.90
46932;DHT22;32670;51.464;11.964;2023-02-15T11:51:16;20.10;44.30
46932;DHT22;32670;51.464;11.964;2023-02-15T11:53:43;20.10;44.40
46932;DHT22;32670;51.464;11.964;2023-02-15T11:56:21;20.10;44.30
46932;DHT22;32670;51.464;11.964;2023-02-15T11:59:03;20.10;44.60
46932;DHT22;32670;51.464;11.964;2023-02-15T12:01:38;20.10;45.00
46932;DHT22;32670;51.464;11.964;2023-02-15T12:04:21;20.20;44.90
46932;DHT22;32670;51.464;11.964;2023-02-15T12:07:13;20.20;44.70
46932;DHT22;32670;51.464;11.964;2023-02-15T12:12:37;20.10;44.60
46932;DHT22;32670;51.464;11.964;2023-02-15T12:15:10;20.20;44.60
46932;DHT22;32670;51.464;11.964;2023-02-15T12:17:47;20.20;44.60
46932;DHT22;32670;51.464;11.964;2023-02-15T12:22:39;20.20;44.50
46932;DHT22;32670;51.464;11.964;2023-02-15T12:25:41;20.20;44.50
46932;DHT22;32670;51.464;11.964;2023-02-15T12:30:47;20.20;44.50
46932;DHT22;32670;51.464;11.964;2023-02-15T12:38:36;20.20;44.50
46932;DHT22;32670;51.464;11.964;2023-02-15T12:41:21;20.20;44.50
46932;DHT22;32670;51.464;11.964;2023-02-15T12:43:47;20.20;44.50
46932;DHT22;32670;51.464;11.964;2023-02-15T12:46:27;20.20;44.50
46932;DHT22;32670;51.464;11.964;2023-02-15T12:49:07;20.20;44.40
46932;DHT22;32670;51.464;11.964;2023-02-15T12:51:44;20.20;44.40
46932;DHT22;32670;51.464;11.964;2023-02-15T12:54:31;20.20;44.40
46932;DHT22;32670;51.464;11.964;2023-02-15T12:56:58;20.20;44.40
46932;DHT22;32670;51.464;11.964;2023-02-15T12:59:24;20.20;44.50
46932;DHT22;32670;51.464;11.964;2023-02-15T13:01:52;20.20;44.40
46932;DHT22;32670;51.464;11.964;2023-02-15T13:04:24;20.20;44.40
46932;DHT22;32670;51.464;11.964;2023-02-15T13:06:53;20.20;44.40
46932;DHT22;32670;51.464;11.964;2023-02-15T13:09:37;20.20;44.50
46932;DHT22;32670;51.464;11.964;2023-02-15T13:12:21;20.20;44.40
46932;DHT22;32670;51.464;11.964;2023-02-15T13:14:50;20.20;44.40
46932;DHT22;32670;51.464;11.964;2023-02-15T13:17:21;20.30;44.50
46932;DHT22;32670;51.464;11.964;2023-02-15T13:19:53;20.20;44.40
46932;DHT22;32670;51.464;11.964;2023-02-15T13:22:45;20.30;44.50
46932;DHT22;32670;51.464;11.964;2023-02-15T13:25:14;20.30;44.50
46932;DHT22;32670;51.464;11.964;2023-02-15T13:27:43;20.20;44.50
46932;DHT22;32670;51.464;11.964;2023-02-15T13:30:25;20.20;44.50
46932;DHT22;32670;51.464;11.964;2023-02-15T13:32:56;20.30;44.50
46932;DHT22;32670;51.464;11.964;2023-02-15T13:35:28;20.30;44.50
46932;DHT22;32670;51.464;11.964;2023-02-15T13:38:16;20.30;44.50
46932;DHT22;32670;51.464;11.964;2023-02-15T13:40:55;20.30;44.50
46932;DHT22;32670;51.464;11.964;2023-02-15T13:46:17;20.30;44.50
46932;DHT22;32670;51.464;11.964;2023-02-15T13:49:46;20.30;44.50
46932;DHT22;32670;51.464;11.964;2023-02-15T13:52:04;20.30;44.50
46932;DHT22;32670;51.464;11.964;2023-02-15T13:55:13;20.30;44.50
46932;DHT22;32670;51.464;11.964;2023-02-15T14:00:44;20.30;44.60
46932;DHT22;32670;51.464;11.964;2023-02-15T14:03:38;20.30;44.60
46932;DHT22;32670;51.464;11.964;2023-02-15T14:06:47;20.30;44.50
46932;DHT22;32670;51.464;11.964;2023-02-15T14:09:52;20.30;46.30
46932;DHT22;32670;51.464;11.964;2023-02-15T14:12:35;20.30;46.10
46932;DHT22;32670;51.464;11.964;2023-02-15T14:15:29;20.30;45.70
46932;DHT22;32670;51.464;11.964;2023-02-15T14:18:15;20.30;45.50
46932;DHT22;32670;51.464;11.964;2023-02-15T14:21:07;20.40;45.30
46932;DHT22;32670;51.464;11.964;2023-02-15T14:23:46;20.40;45.20
46932;DHT22;32670;51.464;11.964;2023-02-15T14:29:16;20.30;45.70
46932;DHT22;32670;51.464;11.964;2023-02-15T14:31:46;20.40;45.40
46932;DHT22;32670;51.464;11.964;2023-02-15T14:34:27;20.40;45.30
46932;DHT22;32670;51.464;11.964;2023-02-15T14:36:55;20.40;45.60
46932;DHT22;32670;51.464;11.964;2023-02-15T14:39:37;20.40;45.30
46932;DHT22;32670;51.464;11.964;2023-02-15T14:48:31;20.40;45.20
46932;DHT22;32670;51.464;11.964;2023-02-15T14:50:58;20.40;45.20
46932;DHT22;32670;51.464;11.964;2023-02-15T14:58:36;20.40;45.40
46932;DHT22;32670;51.464;11.964;2023-02-15T15:01:07;20.30;45.30
46932;DHT22;32670;51.464;11.964;2023-02-15T15:03:34;20.40;45.30
46932;DHT22;32670;51.464;11.964;2023-02-15T15:06:02;20.40;45.20
46932;DHT22;32670;51.464;11.964;2023-02-15T15:08:36;20.40;45.30
46932;DHT22;32670;51.464;11.964;2023-02-15T15:11:40;20.40;45.20
46932;DHT22;32670;51.464;11.964;2023-02-15T15:14:07;20.40;45.20
46932;DHT22;32670;51.464;11.964;2023-02-15T15:19:03;20.40;45.20
46932;DHT22;32670;51.464;11.964;2023-02-15T15:35:36;20.40;45.20
46932;DHT22;32670;51.464;11.964;2023-02-15T15:38:27;20.40;45.10
46932;DHT22;32670;51.464;11.964;2023-02-15T15:44:20;20.40;45.10
46932;DHT22;32670;51.464;11.964;2023-02-15T15:49:40;20.40;45.20
46932;DHT22;32670;51.464;11.964;2023-02-15T15:52:15;20.40;45.10
46932;DHT22;32670;51.464;11.964;2023-02-15T15:54:42;20.40;45.10
46932;DHT22;32670;51.464;11.964;2023-02-15T15:57:28;20.30;45.10
46932;DHT22;32670;51.464;11.964;2023-02-15T15:59:54;20.40;45.10
46932;DHT22;32670;51.464;11.964;2023-02-15T16:02:21;20.40;45.10
46932;DHT22;32670;51.464;11.964;2023-02-15T16:04:48;20.40;45.10
46932;DHT22;32670;51.464;11.964;2023-02-15T16:07:23;20.40;45.10
46932;DHT22;32670;51.464;11.964;2023-02-15T16:10:00;20.40;45.10
46932;DHT22;32670;51.464;11.964;2023-02-15T16:12:28;20.40;45.10
46932;DHT22;32670;51.464;11.964;2023-02-15T16:14:55;20.40;45.10
46932;DHT22;32670;51.464;11.964;2023-02-15T16:17:24;20.40;45.10
46932;DHT22;32670;51.464;11.964;2023-02-15T16:19:51;20.40;45.10
46932;DHT22;32670;51.464;11.964;2023-02-15T16:22:24;20.40;45.10
46932;DHT22;32670;51.464;11.964;2023-02-15T16:25:16;20.40;45.10
46932;DHT22;32670;51.464;11.964;2023-02-15T16:27:45;20.40;46.50
46932;DHT22;32670;51.464;11.964;2023-02-15T16:35:33;20.40;46.20
46932;DHT22;32670;51.464;11.964;2023-02-15T16:37:59;20.40;45.90
46932;DHT22;32670;51.464;11.964;2023-02-15T16:40:29;20.40;45.80
46932;DHT22;32670;51.464;11.964;2023-02-15T16:43:01;20.40;45.80
46932;DHT22;32670;51.464;11.964;2023-02-15T16:45:29;20.40;45.70
46932;DHT22;32670;51.464;11.964;2023-02-15T16:47:57;20.40;45.70
46932;DHT22;32670;51.464;11.964;2023-02-15T16:50:36;20.40;45.70
46932;DHT22;32670;51.464;11.964;2023-02-15T16:53:04;20.40;45.60
46932;DHT22;32670;51.464;11.964;2023-02-15T16:55:37;20.40;45.60
46932;DHT22;32670;51.464;11.964;2023-02-15T16:58:05;20.40;45.60
46932;DHT22;32670;51.464;11.964;2023-02-15T17:00:37;20.40;45.60
46932;DHT22;32670;51.464;11.964;2023-02-15T17:03:21;20.40;45.60
46932;DHT22;32670;51.464;11.964;2023-02-15T17:05:54;20.40;45.50
46932;DHT22;32670;51.464;11.964;2023-02-15T17:08:46;20.40;45.60
46932;DHT22;32670;51.464;11.964;2023-02-15T17:11:20;20.40;45.50
46932;DHT22;32670;51.464;11.964;2023-02-15T17:14:10;20.40;45.50
46932;DHT22;32670;51.464;11.964;2023-02-15T17:19:23;20.40;45.40
46932;DHT22;32670;51.464;11.964;2023-02-15T17:22:04;20.40;45.50
46932;DHT22;32670;51.464;11.964;2023-02-15T17:24:36;20.40;45.50
46932;DHT22;32670;51.464;11.964;2023-02-15T17:27:06;20.40;45.50
46932;DHT22;32670;51.464;11.964;2023-02-15T17:30:00;20.40;45.50
46932;DHT22;32670;51.464;11.964;2023-02-15T17:32:31;20.40;45.50
46932;DHT22;32670;51.464;11.964;2023-02-15T17:40:24;20.40;45.50
46932;DHT22;32670;51.464;11.964;2023-02-15T17:42:50;20.40;45.40
46932;DHT22;32670;51.464;11.964;2023-02-15T17:45:16;20.40;45.50